createdAt,value
2023-08-18T00:00:15.697Z,96043.19
2023-08-18T00:01:18.902Z,96037.13
2023-08-18T00:02:21.570Z,96031.59
2023-08-18T00:03:23.185Z,96035.97
2023-08-18T00:04:24.852Z,96032.94
2023-08-18T00:05:26.513Z,96035.69
2023-08-18T00:06:28.263Z,96026.69
2023-08-18T00:07:30.282Z,96030.97
2023-08-18T00:08:32.192Z,96027.34
2023-08-18T00:09:33.930Z,96025.69
2023-08-18T00:10:35.687Z,96022.06
2023-08-18T00:11:37.378Z,96016.63
2023-08-18T00:12:39.072Z,96016.50
2023-08-18T00:13:40.799Z,96020.47
2023-08-18T00:14:42.449Z,96013.19
2023-08-18T00:15:44.098Z,96019.13
2023-08-18T00:16:45.850Z,96022.00
2023-08-18T00:17:47.680Z,96014.66
2023-08-18T00:18:49.243Z,96014.91
2023-08-18T00:19:50.895Z,96014.94
2023-08-18T00:20:52.533Z,96018.66
2023-08-18T00:21:54.169Z,96021.94
2023-08-18T00:22:55.791Z,96016.50
2023-08-18T00:23:57.411Z,96016.16
2023-08-18T00:24:59.097Z,96013.88
2023-08-18T00:26:00.714Z,96015.19
2023-08-18T00:27:02.464Z,96016.59
2023-08-18T00:28:04.744Z,96010.63
2023-08-18T00:29:06.409Z,96004.56
2023-08-18T00:30:08.535Z,96006.25
2023-08-18T00:31:10.189Z,96006.19
2023-08-18T00:32:11.909Z,96001.69
2023-08-18T00:33:13.582Z,96008.34
2023-08-18T00:34:15.214Z,96004.88
2023-08-18T00:35:16.929Z,96002.22
2023-08-18T00:36:18.573Z,95998.56
2023-08-18T00:37:20.164Z,96004.50
2023-08-18T00:38:21.927Z,96005.31
2023-08-18T00:39:23.824Z,96004.31
2023-08-18T00:40:25.547Z,96002.44
2023-08-18T00:41:27.208Z,95998.44
2023-08-18T00:42:28.798Z,95998.16
2023-08-18T00:43:30.393Z,95996.91
2023-08-18T00:44:31.951Z,95998.13
2023-08-18T00:45:33.704Z,95990.66
2023-08-18T00:46:35.886Z,95991.97
2023-08-18T00:47:37.894Z,95991.53
2023-08-18T00:48:39.648Z,95988.81
2023-08-18T00:49:41.284Z,95980.34
2023-08-18T00:50:44.179Z,95980.09
2023-08-18T00:51:46.893Z,95980.53
2023-08-18T00:52:57.423Z,95985.44
2023-08-18T00:53:59.093Z,95988.22
2023-08-18T00:55:00.755Z,95983.28
2023-08-18T00:56:02.815Z,95985.31
2023-08-18T00:57:04.486Z,95983.78
2023-08-18T00:58:06.206Z,95978.31
2023-08-18T00:59:07.919Z,95981.31
2023-08-18T01:00:12.225Z,95979.56
2023-08-18T01:01:14.961Z,95988.09
2023-08-18T01:02:18.655Z,95977.56
2023-08-18T01:03:20.594Z,95980.72
2023-08-18T01:04:22.830Z,95981.03
2023-08-18T01:05:24.425Z,95979.78
2023-08-18T01:06:26.058Z,95981.16
2023-08-18T01:07:28.293Z,95979.72
2023-08-18T01:08:30.305Z,95977.38
2023-08-18T01:09:33.339Z,95970.28
2023-08-18T01:10:46.336Z,95973.38
2023-08-18T01:11:53.709Z,95974.19
2023-08-18T01:13:11.276Z,95971.91
2023-08-18T01:14:34.781Z,95976.50
2023-08-18T01:15:39.436Z,95973.28
2023-08-18T01:16:44.099Z,95971.31
2023-08-18T01:17:49.948Z,95969.81
2023-08-18T01:18:52.122Z,95974.50
2023-08-18T01:19:53.932Z,95966.72
2023-08-18T01:20:56.003Z,95965.56
2023-08-18T01:21:58.930Z,95972.75
2023-08-18T01:23:04.096Z,95962.25
2023-08-18T01:24:06.084Z,95968.16
2023-08-18T01:25:07.976Z,95959.56
2023-08-18T01:26:09.752Z,95959.69
2023-08-18T01:27:11.412Z,95953.13
2023-08-18T01:28:13.055Z,95959.94
2023-08-18T01:29:14.724Z,95961.19
2023-08-18T01:30:17.393Z,95963.03
2023-08-18T01:31:26.067Z,95954.41
2023-08-18T01:32:37.243Z,95953.88
2023-08-18T01:33:44.052Z,95955.34
2023-08-18T01:34:46.922Z,95949.75
2023-08-18T01:35:48.477Z,95954.69
2023-08-18T01:36:52.341Z,95949.41
2023-08-18T01:37:55.533Z,95947.06
2023-08-18T01:38:59.110Z,95951.00
2023-08-18T01:40:00.638Z,95950.63
2023-08-18T01:41:06.306Z,95954.16
2023-08-18T01:42:08.208Z,95951.44
2023-08-18T01:43:09.877Z,95942.81
2023-08-18T01:44:15.499Z,95949.78
2023-08-18T01:45:17.213Z,95942.84
2023-08-18T01:46:19.033Z,95955.03
2023-08-18T01:47:20.732Z,95946.28
2023-08-18T01:48:22.428Z,95947.25
2023-08-18T01:49:24.046Z,95949.16
2023-08-18T01:50:25.715Z,95949.03
2023-08-18T01:51:27.368Z,95951.53
2023-08-18T01:52:28.933Z,95953.00
2023-08-18T01:53:31.020Z,95950.34
2023-08-18T01:54:32.715Z,95950.16
2023-08-18T01:55:34.345Z,95955.78
2023-08-18T01:56:37.908Z,95957.72
2023-08-18T01:57:39.529Z,95953.75
2023-08-18T01:58:41.189Z,95952.91
2023-08-18T01:59:42.775Z,95947.38
2023-08-18T02:00:44.575Z,95955.59
2023-08-18T02:01:46.356Z,95949.06
2023-08-18T02:02:48.566Z,95950.34
2023-08-18T02:03:50.393Z,95949.16
2023-08-18T02:04:52.068Z,95942.53
2023-08-18T02:05:57.750Z,95941.81
2023-08-18T02:07:00.928Z,95943.84
2023-08-18T02:08:02.567Z,95941.56
2023-08-18T02:09:04.846Z,95939.28
2023-08-18T02:10:08.261Z,95940.75
2023-08-18T02:11:09.905Z,95933.28
2023-08-18T02:12:11.508Z,95926.66
2023-08-18T02:13:13.077Z,95932.25
2023-08-18T02:14:14.732Z,95937.22
2023-08-18T02:15:16.400Z,95931.53
2023-08-18T02:16:18.057Z,95936.75
2023-08-18T02:17:19.661Z,95932.81
2023-08-18T02:18:21.283Z,95930.59
2023-08-18T02:19:22.971Z,95934.53
2023-08-18T02:20:25.164Z,95933.75
2023-08-18T02:21:26.855Z,95925.56
2023-08-18T02:22:28.476Z,95926.72
2023-08-18T02:23:30.249Z,95925.78
2023-08-18T02:24:31.890Z,95922.41
2023-08-18T02:25:33.469Z,95932.75
2023-08-18T02:26:35.064Z,95936.41
2023-08-18T02:27:36.927Z,95928.91
2023-08-18T02:28:38.559Z,95932.97
2023-08-18T02:29:40.165Z,95933.19
2023-08-18T02:30:42.051Z,95937.19
2023-08-18T02:31:43.752Z,95939.94
2023-08-18T02:32:45.402Z,95939.16
2023-08-18T02:33:47.149Z,95932.88
2023-08-18T02:34:48.760Z,95940.63
2023-08-18T02:35:50.340Z,95934.97
2023-08-18T02:36:51.984Z,95933.66
2023-08-18T02:37:53.584Z,95930.44
2023-08-18T02:38:55.167Z,95932.13
2023-08-18T02:39:57.252Z,95931.31
2023-08-18T02:40:58.925Z,95930.97
2023-08-18T02:42:00.538Z,95920.84
2023-08-18T02:43:02.231Z,95925.53
2023-08-18T02:44:04.613Z,95928.94
2023-08-18T02:45:06.803Z,95919.09
2023-08-18T02:46:08.515Z,95919.00
2023-08-18T02:47:10.913Z,95914.53
2023-08-18T02:48:13.483Z,95910.97
2023-08-18T02:49:17.079Z,95914.38
2023-08-18T02:50:18.695Z,95911.69
2023-08-18T02:51:20.409Z,95911.34
2023-08-18T02:52:21.991Z,95909.16
2023-08-18T02:53:23.614Z,95912.28
2023-08-18T02:54:25.231Z,95905.41
2023-08-18T02:55:26.943Z,95905.91
2023-08-18T02:56:28.547Z,95911.53
2023-08-18T02:57:30.475Z,95903.75
2023-08-18T02:58:34.739Z,95906.31
2023-08-18T02:59:37.130Z,95900.53
2023-08-18T03:00:39.813Z,95905.25
2023-08-18T03:01:41.388Z,95902.34
2023-08-18T03:02:43.034Z,95908.91
2023-08-18T03:03:44.719Z,95906.44
2023-08-18T03:04:46.447Z,95907.25
2023-08-18T03:05:48.594Z,95906.50
2023-08-18T03:06:50.300Z,95910.75
2023-08-18T03:07:51.905Z,95909.63
2023-08-18T03:08:53.509Z,95907.66
2023-08-18T03:09:55.128Z,95906.69
2023-08-18T03:10:57.880Z,95916.44
2023-08-18T03:11:59.484Z,95913.09
2023-08-18T03:13:04.785Z,95915.53
2023-08-18T03:14:06.780Z,95911.69
2023-08-18T03:15:08.957Z,95910.53
2023-08-18T03:16:10.642Z,95917.66
2023-08-18T03:17:12.268Z,95914.00
2023-08-18T03:18:13.861Z,95914.13
2023-08-18T03:19:15.451Z,95911.38
2023-08-18T03:20:17.136Z,95913.81
2023-08-18T03:21:18.815Z,95920.19
2023-08-18T03:22:20.364Z,95922.13
2023-08-18T03:23:21.968Z,95912.84
2023-08-18T03:24:23.645Z,95917.72
2023-08-18T03:25:25.282Z,95913.53
2023-08-18T03:26:27.538Z,95913.91
2023-08-18T03:27:30.339Z,95916.69
2023-08-18T03:28:35.487Z,95914.19
2023-08-18T03:29:37.119Z,95915.97
2023-08-18T03:30:39.434Z,95915.94
2023-08-18T03:31:41.305Z,95912.78
2023-08-18T03:32:43.003Z,95908.13
2023-08-18T03:33:44.659Z,95915.13
2023-08-18T03:34:51.775Z,95918.75
2023-08-18T03:35:56.623Z,95916.75
2023-08-18T03:36:58.410Z,95920.84
2023-08-18T03:38:00.349Z,95921.13
2023-08-18T03:39:01.938Z,95915.63
2023-08-18T03:40:05.810Z,95921.22
2023-08-18T03:41:08.156Z,95915.06
2023-08-18T03:42:09.729Z,95924.09
2023-08-18T03:43:11.370Z,95909.63
2023-08-18T03:44:13.319Z,95923.72
2023-08-18T03:45:14.927Z,95923.00
2023-08-18T03:46:20.898Z,95924.63
2023-08-18T03:47:24.177Z,95921.00
2023-08-18T03:48:27.127Z,95927.56
2023-08-18T03:49:30.583Z,95930.94
2023-08-18T03:50:32.861Z,95930.56
2023-08-18T03:51:34.881Z,95926.03
2023-08-18T03:52:36.501Z,95924.38
2023-08-18T03:53:38.433Z,95930.63
2023-08-18T03:54:40.393Z,95931.38
2023-08-18T03:55:42.216Z,95928.19
2023-08-18T03:56:43.820Z,95926.06
2023-08-18T03:57:45.489Z,95924.84
2023-08-18T03:58:47.474Z,95924.13
2023-08-18T03:59:49.098Z,95923.50
2023-08-18T04:00:50.891Z,95925.50
2023-08-18T04:01:52.772Z,95916.44
2023-08-18T04:02:54.430Z,95922.03
2023-08-18T04:03:59.505Z,95921.13
2023-08-18T04:05:01.108Z,95921.84
2023-08-18T04:06:04.378Z,95917.28
2023-08-18T04:07:05.973Z,95919.72
2023-08-18T04:08:07.578Z,95919.69
2023-08-18T04:09:14.972Z,95916.22
2023-08-18T04:10:16.615Z,95918.56
2023-08-18T04:11:18.280Z,95923.28
2023-08-18T04:12:19.863Z,95919.72
2023-08-18T04:13:21.569Z,95922.56
2023-08-18T04:14:23.190Z,95927.72
2023-08-18T04:15:25.036Z,95922.63
2023-08-18T04:16:26.703Z,95921.47
2023-08-18T04:17:28.313Z,95921.41
2023-08-18T04:18:30.568Z,95914.75
2023-08-18T04:19:32.649Z,95925.66
2023-08-18T04:20:34.327Z,95917.78
2023-08-18T04:21:35.985Z,95915.50
2023-08-18T04:22:38.655Z,95915.44
2023-08-18T04:23:41.511Z,95914.16
2023-08-18T04:24:44.883Z,95916.44
2023-08-18T04:25:47.876Z,95918.09
2023-08-18T04:26:50.135Z,95916.84
2023-08-18T04:27:51.780Z,95911.34
2023-08-18T04:28:53.797Z,95918.03
2023-08-18T04:29:56.388Z,95907.84
2023-08-18T04:30:59.637Z,95917.38
2023-08-18T04:32:24.359Z,95916.59
2023-08-18T04:33:26.626Z,95914.53
2023-08-18T04:34:30.311Z,95925.84
2023-08-18T04:35:31.805Z,95917.69
2023-08-18T04:36:34.037Z,95924.16
2023-08-18T04:37:35.649Z,95922.38
2023-08-18T04:38:37.827Z,95924.75
2023-08-18T04:39:42.373Z,95926.03
2023-08-18T04:40:44.069Z,95927.44
2023-08-18T04:41:45.705Z,95929.75
2023-08-18T04:42:47.369Z,95926.22
2023-08-18T04:43:51.238Z,95932.16
2023-08-18T04:44:54.270Z,95940.88
2023-08-18T04:45:56.395Z,95931.47
2023-08-18T04:46:58.146Z,95933.63
2023-08-18T04:48:00.576Z,95936.16
2023-08-18T04:49:02.362Z,95930.78
2023-08-18T04:50:06.016Z,95930.13
2023-08-18T04:51:07.916Z,95926.59
2023-08-18T04:52:11.208Z,95933.72
2023-08-18T04:53:12.801Z,95945.47
2023-08-18T04:54:14.410Z,95946.47
2023-08-18T04:55:16.262Z,95944.06
2023-08-18T04:56:17.839Z,95945.66
2023-08-18T04:57:19.501Z,95947.63
2023-08-18T04:58:21.169Z,95949.25
2023-08-18T04:59:22.850Z,95948.56
2023-08-18T05:00:24.467Z,95950.97
2023-08-18T05:01:26.079Z,95956.06
2023-08-18T05:02:28.424Z,95956.94
2023-08-18T05:03:30.343Z,95951.94
2023-08-18T05:04:32.598Z,95951.41
2023-08-18T05:05:57.258Z,95957.56
2023-08-18T05:06:58.838Z,95957.91
2023-08-18T05:08:00.599Z,95959.69
2023-08-18T05:09:02.171Z,95956.59
2023-08-18T05:10:04.769Z,95966.50
2023-08-18T05:11:08.159Z,95959.13
2023-08-18T05:12:10.737Z,95954.19
2023-08-18T05:13:12.365Z,95959.72
2023-08-18T05:14:14.421Z,95956.47
2023-08-18T05:15:17.466Z,95953.19
2023-08-18T05:16:19.135Z,95955.44
2023-08-18T05:17:20.711Z,95960.84
2023-08-18T05:18:22.568Z,95967.19
2023-08-18T05:19:24.150Z,95966.53
2023-08-18T05:20:25.714Z,95963.09
2023-08-18T05:21:27.297Z,95965.84
2023-08-18T05:22:29.092Z,95966.31
2023-08-18T05:23:31.905Z,95963.16
2023-08-18T05:24:33.565Z,95969.22
2023-08-18T05:25:35.163Z,95968.72
2023-08-18T05:26:36.737Z,95978.69
2023-08-18T05:27:38.985Z,95975.06
2023-08-18T05:28:41.057Z,95978.63
2023-08-18T05:29:42.644Z,95982.06
2023-08-18T05:30:47.979Z,95983.66
2023-08-18T05:31:49.648Z,95980.09
2023-08-18T05:32:51.244Z,95984.25
2023-08-18T05:33:52.866Z,95983.75
2023-08-18T05:34:55.867Z,95984.25
2023-08-18T05:36:01.093Z,95976.50
2023-08-18T05:37:02.718Z,95985.97
2023-08-18T05:38:08.645Z,95978.78
2023-08-18T05:39:10.206Z,95980.22
2023-08-18T05:40:12.137Z,95976.25
2023-08-18T05:41:14.972Z,95973.16
2023-08-18T05:42:16.846Z,95973.84
2023-08-18T05:43:21.643Z,95984.50
2023-08-18T05:44:23.286Z,95972.81
2023-08-18T05:45:26.991Z,95974.25
2023-08-18T05:46:28.857Z,95980.28
2023-08-18T05:47:30.700Z,95974.78
2023-08-18T05:48:33.611Z,95978.47
2023-08-18T05:49:35.196Z,95983.34
2023-08-18T05:50:36.905Z,95987.03
2023-08-18T05:51:44.009Z,95982.78
2023-08-18T05:52:45.580Z,95982.34
2023-08-18T05:53:47.324Z,95993.63
2023-08-18T05:54:49.155Z,95996.38
2023-08-18T05:55:51.968Z,95997.28
2023-08-18T05:56:53.609Z,95990.34
2023-08-18T05:57:55.590Z,95986.31
2023-08-18T05:58:57.182Z,95998.34
2023-08-18T05:59:58.920Z,95996.47
2023-08-18T06:01:00.575Z,95996.88
2023-08-18T06:02:02.198Z,95987.44
2023-08-18T06:03:03.924Z,95995.69
2023-08-18T06:04:05.875Z,95993.94
2023-08-18T06:05:07.883Z,95999.09
2023-08-18T06:06:09.507Z,95998.78
2023-08-18T06:07:12.158Z,95998.47
2023-08-18T06:08:13.778Z,96009.59
2023-08-18T06:09:15.404Z,96008.00
2023-08-18T06:10:17.011Z,96004.06
2023-08-18T06:11:18.658Z,96004.50
2023-08-18T06:12:20.326Z,96004.13
2023-08-18T06:13:21.992Z,96002.97
2023-08-18T06:14:23.629Z,96001.03
2023-08-18T06:15:25.394Z,96005.84
2023-08-18T06:16:27.009Z,96003.09
2023-08-18T06:17:28.662Z,96000.31
2023-08-18T06:18:30.276Z,96008.66
2023-08-18T06:19:31.866Z,96005.84
2023-08-18T06:20:33.476Z,95999.78
2023-08-18T06:21:35.106Z,96002.53
2023-08-18T06:22:37.970Z,96000.19
2023-08-18T06:23:39.622Z,96005.25
2023-08-18T06:24:41.907Z,96008.47
2023-08-18T06:25:43.370Z,96008.88
2023-08-18T06:26:44.988Z,96007.78
2023-08-18T06:27:46.594Z,96000.47
2023-08-18T06:28:48.181Z,96001.66
2023-08-18T06:29:51.117Z,96003.41
2023-08-18T06:30:52.719Z,96008.47
2023-08-18T06:31:54.344Z,96004.13
2023-08-18T06:32:56.022Z,96007.81
2023-08-18T06:33:57.667Z,96005.84
2023-08-18T06:34:59.253Z,96005.78
2023-08-18T06:36:01.005Z,96010.50
2023-08-18T06:37:03.285Z,96009.63
2023-08-18T06:38:04.874Z,96002.47
2023-08-18T06:39:06.478Z,96001.44
2023-08-18T06:40:08.888Z,96007.31
2023-08-18T06:41:10.684Z,96006.44
2023-08-18T06:42:15.319Z,96010.97
2023-08-18T06:43:16.929Z,96010.78
2023-08-18T06:44:18.556Z,96002.84
2023-08-18T06:45:20.195Z,96004.44
2023-08-18T06:46:21.838Z,96009.25
2023-08-18T06:47:24.476Z,96013.25
2023-08-18T06:48:26.072Z,96015.72
2023-08-18T06:49:27.649Z,96013.88
2023-08-18T06:50:29.246Z,96016.53
2023-08-18T06:51:31.003Z,96019.06
2023-08-18T06:52:34.385Z,96013.00
2023-08-18T06:53:36.133Z,96009.69
2023-08-18T06:54:37.777Z,96011.88
2023-08-18T06:55:47.624Z,96013.06
2023-08-18T06:57:01.277Z,96012.97
2023-08-18T06:58:05.109Z,96000.50
2023-08-18T06:59:06.754Z,96008.66
2023-08-18T07:00:11.033Z,96010.22
2023-08-18T07:01:12.706Z,96004.56
2023-08-18T07:02:14.427Z,96007.78
2023-08-18T07:03:16.172Z,96007.59
2023-08-18T07:04:17.832Z,96001.66
2023-08-18T07:05:19.474Z,96006.16
2023-08-18T07:06:21.427Z,96004.34
2023-08-18T07:07:23.222Z,96010.03
2023-08-18T07:08:25.950Z,96001.47
2023-08-18T07:09:27.573Z,96011.47
2023-08-18T07:10:29.188Z,96010.69
2023-08-18T07:11:30.796Z,96017.00
2023-08-18T07:12:34.620Z,96012.25
2023-08-18T07:13:36.810Z,96005.88
2023-08-18T07:14:38.263Z,96008.16
2023-08-18T07:15:40.054Z,96010.72
2023-08-18T07:16:41.728Z,96002.28
2023-08-18T07:17:43.377Z,96009.78
2023-08-18T07:18:44.990Z,96005.25
2023-08-18T07:19:46.575Z,96003.88
2023-08-18T07:20:48.272Z,96003.34
2023-08-18T07:21:49.895Z,96005.44
2023-08-18T07:22:51.554Z,96008.16
2023-08-18T07:23:53.134Z,96008.16
2023-08-18T07:24:54.753Z,96005.69
2023-08-18T07:25:56.815Z,96016.50
2023-08-18T07:26:58.515Z,96009.44
2023-08-18T07:28:00.155Z,96015.25
2023-08-18T07:29:01.773Z,96013.59
2023-08-18T07:30:05.945Z,96013.97
2023-08-18T07:31:08.818Z,96016.91
2023-08-18T07:32:10.585Z,96017.75
2023-08-18T07:33:12.463Z,96020.31
2023-08-18T07:34:14.051Z,96009.72
2023-08-18T07:35:15.784Z,96019.22
2023-08-18T07:36:17.433Z,96010.81
2023-08-18T07:37:23.589Z,96011.44
2023-08-18T07:38:39.541Z,96018.97
2023-08-18T07:39:41.159Z,96015.72
2023-08-18T07:40:42.916Z,96019.59
2023-08-18T07:41:44.589Z,96017.22
2023-08-18T07:42:46.527Z,96022.63
2023-08-18T07:43:48.070Z,96026.00
2023-08-18T07:44:49.699Z,96021.56
2023-08-18T07:45:51.342Z,96026.38
2023-08-18T07:46:53.020Z,96025.91
2023-08-18T07:47:54.929Z,96019.34
2023-08-18T07:48:56.546Z,96032.03
2023-08-18T07:49:58.693Z,96033.94
2023-08-18T07:51:00.226Z,96029.44
2023-08-18T07:52:01.816Z,96023.41
2023-08-18T07:53:03.381Z,96028.63
2023-08-18T07:54:05.246Z,96025.91
2023-08-18T07:55:08.737Z,96029.84
2023-08-18T07:56:10.325Z,96026.78
2023-08-18T07:57:11.920Z,96021.72
2023-08-18T07:58:13.467Z,96027.66
2023-08-18T07:59:15.115Z,96023.44
2023-08-18T08:00:20.642Z,96022.03
2023-08-18T08:01:22.641Z,96028.31
2023-08-18T08:02:30.070Z,96026.19
2023-08-18T08:03:32.642Z,96026.84
2023-08-18T08:04:34.474Z,96029.59
2023-08-18T08:05:36.182Z,96022.94
2023-08-18T08:06:37.786Z,96034.00
2023-08-18T08:07:41.503Z,96033.78
2023-08-18T08:08:43.308Z,96028.81
2023-08-18T08:09:44.922Z,96029.41
2023-08-18T08:10:46.611Z,96032.22
2023-08-18T08:11:48.177Z,96032.47
2023-08-18T08:12:50.027Z,96023.13
2023-08-18T08:13:51.719Z,96026.13
2023-08-18T08:14:53.380Z,96025.78
2023-08-18T08:15:54.998Z,96022.50
2023-08-18T08:16:56.655Z,96023.94
2023-08-18T08:17:58.490Z,96030.25
2023-08-18T08:19:00.134Z,96025.91
2023-08-18T08:20:07.026Z,96022.28
2023-08-18T08:21:08.695Z,96025.84
2023-08-18T08:22:10.919Z,96027.38
2023-08-18T08:23:12.549Z,96022.50
2023-08-18T08:24:14.226Z,96022.47
2023-08-18T08:25:16.503Z,96031.16
2023-08-18T08:26:18.449Z,96027.78
2023-08-18T08:27:20.047Z,96034.03
2023-08-18T08:28:22.895Z,96031.03
2023-08-18T08:29:25.070Z,96041.63
2023-08-18T08:31:35.744Z,96029.06
2023-08-18T08:32:37.478Z,96039.00
2023-08-18T08:33:39.281Z,96042.22
2023-08-18T08:34:43.473Z,96029.09
2023-08-18T08:35:45.187Z,96042.91
2023-08-18T08:36:46.806Z,96032.72
2023-08-18T08:37:48.407Z,96041.88
2023-08-18T08:38:50.095Z,96039.16
2023-08-18T08:39:51.769Z,96029.75
2023-08-18T08:40:56.069Z,96032.28
2023-08-18T08:41:58.856Z,96039.19
2023-08-18T08:44:08.420Z,96037.47
2023-08-18T08:45:12.987Z,96030.69
2023-08-18T08:46:21.032Z,96033.22
2023-08-18T08:47:22.618Z,96033.25
2023-08-18T08:48:25.464Z,96036.81
2023-08-18T08:49:29.495Z,96032.25
2023-08-18T08:50:32.557Z,96031.34
2023-08-18T08:51:39.078Z,96034.84
2023-08-18T08:52:45.673Z,96022.94
2023-08-18T08:53:50.822Z,96028.97
2023-08-18T08:54:59.264Z,96029.91
2023-08-18T08:56:09.212Z,96037.09
2023-08-18T08:57:14.706Z,96045.75
2023-08-18T08:58:16.468Z,96035.06
2023-08-18T08:59:18.624Z,96040.34
2023-08-18T09:00:20.698Z,96034.63
2023-08-18T09:01:24.190Z,96038.06
2023-08-18T09:02:26.090Z,96044.63
2023-08-18T09:03:30.599Z,96049.47
2023-08-18T09:04:32.295Z,96044.81
2023-08-18T09:05:34.066Z,96040.00
2023-08-18T09:06:36.278Z,96038.38
2023-08-18T09:07:38.255Z,96041.97
2023-08-18T09:08:39.859Z,96036.31
2023-08-18T09:09:42.313Z,96040.16
2023-08-18T09:10:44.409Z,96042.47
2023-08-18T09:11:47.168Z,96046.88
2023-08-18T09:12:48.780Z,96041.09
2023-08-18T09:13:50.445Z,96048.34
2023-08-18T09:14:52.023Z,96044.97
2023-08-18T09:15:53.724Z,96047.97
2023-08-18T09:16:55.407Z,96047.81
2023-08-18T09:17:57.695Z,96045.78
2023-08-18T09:18:59.304Z,96049.56
2023-08-18T09:20:01.193Z,96048.78
2023-08-18T09:21:05.488Z,96043.78
2023-08-18T09:22:07.132Z,96040.03
2023-08-18T09:23:08.787Z,96045.19
2023-08-18T09:24:10.592Z,96040.06
2023-08-18T09:25:13.445Z,96042.25
2023-08-18T09:26:15.152Z,96034.06
2023-08-18T09:27:16.908Z,96041.06
2023-08-18T09:28:19.330Z,96042.38
2023-08-18T09:29:21.771Z,96045.53
2023-08-18T09:30:25.155Z,96038.00
2023-08-18T09:31:26.817Z,96043.41
2023-08-18T09:32:29.046Z,96045.78
2023-08-18T09:34:39.912Z,96045.22
2023-08-18T09:35:41.659Z,96041.31
2023-08-18T09:36:43.281Z,96040.41
2023-08-18T09:37:45.036Z,96039.91
2023-08-18T09:38:46.829Z,96042.91
2023-08-18T09:39:48.430Z,96039.28
2023-08-18T09:40:59.993Z,96036.16
2023-08-18T09:42:01.729Z,96045.38
2023-08-18T09:43:05.754Z,96030.66
2023-08-18T09:44:08.470Z,96037.75
2023-08-18T09:45:12.967Z,96037.22
2023-08-18T09:46:16.524Z,96036.06
2023-08-18T09:47:18.794Z,96036.63
2023-08-18T09:48:22.811Z,96032.06
2023-08-18T09:49:25.481Z,96035.88
2023-08-18T09:50:30.603Z,96035.22
2023-08-18T09:51:32.758Z,96029.72
2023-08-18T09:52:35.592Z,96024.56
2023-08-18T09:53:40.688Z,96030.84
2023-08-18T09:54:55.143Z,96027.91
2023-08-18T09:56:06.838Z,96027.34
2023-08-18T09:57:15.100Z,96019.19
2023-08-18T09:58:26.603Z,96025.66
2023-08-18T09:59:45.211Z,96022.78
2023-08-18T10:00:47.621Z,96026.88
2023-08-18T10:01:50.781Z,96026.88
2023-08-18T10:02:53.891Z,96019.09
2023-08-18T10:03:55.516Z,96020.06
2023-08-18T10:04:57.196Z,96019.03
2023-08-18T10:05:59.575Z,96013.19
2023-08-18T10:07:01.960Z,96012.66
2023-08-18T10:08:04.705Z,96012.81
2023-08-18T10:09:06.470Z,96005.97
2023-08-18T10:10:08.468Z,96014.88
2023-08-18T10:11:10.403Z,96011.97
2023-08-18T10:12:12.387Z,96008.94
2023-08-18T10:13:14.940Z,96008.97
2023-08-18T10:14:17.304Z,96007.22
2023-08-18T10:15:20.026Z,96010.28
2023-08-18T10:16:22.141Z,96002.94
2023-08-18T10:17:25.729Z,96002.75
2023-08-18T10:18:27.533Z,95999.25
2023-08-18T10:19:48.411Z,96001.50
2023-08-18T10:20:51.807Z,96000.56
2023-08-18T10:21:53.489Z,95996.03
2023-08-18T10:22:55.885Z,95990.38
2023-08-18T10:23:58.467Z,95997.31
2023-08-18T10:25:00.229Z,95992.59
2023-08-18T10:26:04.010Z,95986.75
2023-08-18T10:27:08.321Z,95999.00
2023-08-18T10:28:09.938Z,95996.94
2023-08-18T10:29:30.079Z,96001.34
2023-08-18T10:30:36.091Z,95996.34
2023-08-18T10:31:37.718Z,95995.78
2023-08-18T10:32:39.380Z,95992.16
2023-08-18T10:33:51.581Z,95995.69
2023-08-18T10:34:53.338Z,96003.44
2023-08-18T10:35:59.262Z,96000.50
2023-08-18T10:37:00.938Z,95999.13
2023-08-18T10:38:05.722Z,95991.38
2023-08-18T10:39:26.940Z,95994.84
2023-08-18T10:40:36.306Z,95985.56
2023-08-18T10:41:38.024Z,95992.97
2023-08-18T10:42:39.791Z,95997.44
2023-08-18T10:43:56.958Z,96000.91
2023-08-18T10:45:02.373Z,95993.88
2023-08-18T10:46:04.204Z,95997.84
2023-08-18T10:47:32.493Z,95994.75
2023-08-18T10:48:34.512Z,95994.22
2023-08-18T10:49:36.099Z,95990.78
2023-08-18T10:50:40.877Z,95987.81
2023-08-18T10:51:43.090Z,95989.31
2023-08-18T10:52:44.837Z,95989.00
2023-08-18T10:53:46.711Z,95983.53
2023-08-18T10:54:48.352Z,95982.34
2023-08-18T10:55:50.031Z,95994.97
2023-08-18T10:56:51.746Z,95989.97
2023-08-18T10:57:53.564Z,95999.69
2023-08-18T10:58:55.182Z,95997.94
2023-08-18T10:59:56.839Z,95988.94
2023-08-18T11:00:58.607Z,95981.25
2023-08-18T11:02:00.868Z,95984.97
2023-08-18T11:03:04.463Z,95989.63
2023-08-18T11:04:06.570Z,95988.13
2023-08-18T11:05:08.858Z,95986.00
2023-08-18T11:06:10.445Z,95989.56
2023-08-18T11:07:12.147Z,95984.16
2023-08-18T11:08:14.181Z,95987.97
2023-08-18T11:09:15.821Z,95980.06
2023-08-18T11:10:26.881Z,95974.84
2023-08-18T11:11:31.485Z,95976.91
2023-08-18T11:12:33.064Z,95976.84
2023-08-18T11:13:34.666Z,95976.34
2023-08-18T11:14:36.312Z,95978.94
2023-08-18T11:15:37.971Z,95972.91
2023-08-18T11:16:39.739Z,95985.66
2023-08-18T11:17:42.351Z,95978.91
2023-08-18T11:18:43.947Z,95971.06
2023-08-18T11:19:45.612Z,95981.66
2023-08-18T11:20:47.414Z,95975.78
2023-08-18T11:21:49.173Z,95967.59
2023-08-18T11:22:52.773Z,95974.63
2023-08-18T11:23:54.514Z,95975.84
2023-08-18T11:24:56.115Z,95974.03
2023-08-18T11:25:58.014Z,95971.66
2023-08-18T11:26:59.694Z,95972.31
2023-08-18T11:28:01.365Z,95962.97
2023-08-18T11:29:05.162Z,95967.69
2023-08-18T11:30:08.213Z,95957.66
2023-08-18T11:31:13.597Z,95960.47
2023-08-18T11:32:15.229Z,95963.63
2023-08-18T11:33:16.841Z,95961.41
2023-08-18T11:34:18.524Z,95960.41
2023-08-18T11:35:20.372Z,95956.50
2023-08-18T11:36:22.547Z,95963.84
2023-08-18T11:37:24.949Z,95956.47
2023-08-18T11:38:26.633Z,95957.16
2023-08-18T11:39:31.603Z,95958.00
2023-08-18T11:40:37.114Z,95956.13
2023-08-18T11:41:45.526Z,95953.09
2023-08-18T11:42:48.854Z,95952.03
2023-08-18T11:43:51.206Z,95962.16
2023-08-18T11:44:55.321Z,95959.44
2023-08-18T11:45:56.994Z,95959.44
2023-08-18T11:46:59.645Z,95952.09
2023-08-18T11:48:05.017Z,95953.28
2023-08-18T11:49:13.592Z,95955.16
2023-08-18T11:50:20.841Z,95951.66
2023-08-18T11:51:22.597Z,95953.56
2023-08-18T11:52:24.249Z,95955.25
2023-08-18T11:53:26.971Z,95942.66
2023-08-18T11:54:31.326Z,95952.72
2023-08-18T11:55:43.434Z,95947.81
2023-08-18T11:56:45.470Z,95964.78
2023-08-18T11:57:47.870Z,95954.06
2023-08-18T11:58:49.781Z,95959.53
2023-08-18T11:59:52.440Z,95958.97
2023-08-18T12:00:54.163Z,95953.91
2023-08-18T12:02:01.242Z,95953.44
2023-08-18T12:03:04.377Z,95950.03
2023-08-18T12:04:12.506Z,95947.56
2023-08-18T12:05:24.680Z,95950.25
2023-08-18T12:06:26.389Z,95944.00
2023-08-18T12:07:27.987Z,95953.19
2023-08-18T12:08:29.810Z,95942.47
2023-08-18T12:09:31.462Z,95944.06
2023-08-18T12:10:33.078Z,95946.34
2023-08-18T12:11:37.707Z,95953.81
2023-08-18T12:12:39.313Z,95946.72
2023-08-18T12:13:40.918Z,95947.28
2023-08-18T12:14:43.369Z,95945.31
2023-08-18T12:15:45.345Z,95939.34
2023-08-18T12:16:47.080Z,95947.03
2023-08-18T12:17:49.493Z,95942.81
2023-08-18T12:18:51.292Z,95941.53
2023-08-18T12:19:52.923Z,95940.84
2023-08-18T12:20:54.573Z,95937.59